createdAt,value
2022-08-19T00:01:58.987Z,24.26
2022-08-19T00:04:30.245Z,24.37
2022-08-19T00:06:58.628Z,24.43
2022-08-19T00:09:26.746Z,24.46
2022-08-19T00:11:56.541Z,24.33
2022-08-19T00:14:25.893Z,24.37
2022-08-19T00:16:55.500Z,24.40
2022-08-19T00:19:24.477Z,24.36
2022-08-19T00:21:52.424Z,24.36
2022-08-19T00:24:19.915Z,24.54
2022-08-19T00:26:51.454Z,24.64
2022-08-19T00:29:21.206Z,24.67
2022-08-19T00:31:48.694Z,24.73
2022-08-19T00:37:09.272Z,24.90
2022-08-19T00:39:56.712Z,24.60
2022-08-19T00:42:24.354Z,24.67
2022-08-19T00:44:51.713Z,24.64
2022-08-19T00:47:18.907Z,24.73
2022-08-19T00:52:49.225Z,25.04
2022-08-19T00:55:22.866Z,24.95
2022-08-19T00:57:56.380Z,24.96
2022-08-19T01:00:25.406Z,24.91
2022-08-19T01:02:53.484Z,25.07
2022-08-19T01:05:29.673Z,25.14
2022-08-19T01:07:59.714Z,25.16
2022-08-19T01:13:26.257Z,25.01
2022-08-19T01:15:58.409Z,24.88
2022-08-19T01:18:27.433Z,24.64
2022-08-19T01:20:59.012Z,24.52
2022-08-19T01:23:43.441Z,24.61
2022-08-19T01:26:20.028Z,24.67
2022-08-19T01:28:58.339Z,24.77
2022-08-19T01:31:33.112Z,24.71
2022-08-19T01:34:04.555Z,24.59
2022-08-19T01:36:36.169Z,24.39
2022-08-19T01:39:08.067Z,24.52
2022-08-19T01:41:35.570Z,24.30
2022-08-19T01:44:17.654Z,24.20
2022-08-19T01:46:49.222Z,24.27
2022-08-19T01:49:18.728Z,24.32
2022-08-19T01:51:46.293Z,24.47
2022-08-19T01:54:22.900Z,24.36
2022-08-19T01:57:00.452Z,24.29
2022-08-19T01:59:52.668Z,24.26
2022-08-19T02:02:19.809Z,24.01
2022-08-19T02:04:47.004Z,24.16
2022-08-19T02:07:14.310Z,24.29
2022-08-19T02:09:41.542Z,24.33
2022-08-19T02:12:09.969Z,24.37
2022-08-19T02:14:37.815Z,24.25
2022-08-19T02:17:05.190Z,24.32
2022-08-19T02:19:33.516Z,24.36
2022-08-19T02:22:01.149Z,24.06
2022-08-19T02:24:28.876Z,24.10
2022-08-19T02:26:56.454Z,24.06
2022-08-19T02:29:23.775Z,24.23
2022-08-19T02:31:51.275Z,24.19
2022-08-19T02:34:18.509Z,24.17
2022-08-19T02:36:45.682Z,24.20
2022-08-19T02:39:19.929Z,24.01
2022-08-19T02:41:47.049Z,24.20
2022-08-19T02:44:29.132Z,24.04
2022-08-19T02:46:58.731Z,23.94
2022-08-19T02:49:25.831Z,24.05
2022-08-19T02:51:53.035Z,24.02
2022-08-19T02:54:20.192Z,24.09
2022-08-19T02:56:47.589Z,24.20
2022-08-19T02:59:14.790Z,24.32
2022-08-19T03:01:46.746Z,24.39
2022-08-19T03:04:16.631Z,24.40
2022-08-19T03:06:45.695Z,24.50
2022-08-19T03:09:14.072Z,24.43
2022-08-19T03:11:41.653Z,24.50
2022-08-19T03:14:10.428Z,24.44
2022-08-19T03:16:49.727Z,24.52
2022-08-19T03:19:19.343Z,24.47
2022-08-19T03:21:46.961Z,24.50
2022-08-19T03:24:15.238Z,24.32
2022-08-19T03:26:58.721Z,24.19
2022-08-19T03:29:32.629Z,24.13
2022-08-19T03:32:01.942Z,24.20
2022-08-19T03:34:38.252Z,24.22
2022-08-19T03:37:08.310Z,24.25
2022-08-19T03:39:38.125Z,24.06
2022-08-19T03:42:38.531Z,23.84
2022-08-19T03:44:53.876Z,23.92
2022-08-19T03:47:21.061Z,23.90
2022-08-19T03:49:48.275Z,23.86
2022-08-19T03:52:15.424Z,23.79
2022-08-19T03:54:43.000Z,23.72
2022-08-19T03:57:10.184Z,23.74
2022-08-19T03:59:38.283Z,23.71
2022-08-19T04:02:10.269Z,23.68
2022-08-19T04:04:43.994Z,23.54
2022-08-19T04:07:16.237Z,23.74
2022-08-19T04:09:43.602Z,23.68
2022-08-19T04:12:10.749Z,23.47
2022-08-19T04:14:37.928Z,23.40
2022-08-19T04:17:08.025Z,23.31
2022-08-19T04:19:39.593Z,23.50
2022-08-19T04:22:07.778Z,23.50
2022-08-19T04:24:35.901Z,23.58
2022-08-19T04:27:03.896Z,23.53
2022-08-19T04:29:31.312Z,23.67
2022-08-19T04:31:59.580Z,23.64
2022-08-19T04:34:29.331Z,23.92
2022-08-19T04:36:58.913Z,23.89
2022-08-19T04:39:49.626Z,23.86
2022-08-19T04:42:37.603Z,23.90
2022-08-19T04:45:09.417Z,24.29
2022-08-19T04:47:48.282Z,24.50
2022-08-19T04:50:27.149Z,24.36
2022-08-19T04:52:54.712Z,24.56
2022-08-19T04:55:22.112Z,24.77
2022-08-19T04:57:49.332Z,24.75
2022-08-19T05:00:16.566Z,24.70
2022-08-19T05:02:44.026Z,24.85
2022-08-19T05:05:11.597Z,25.11
2022-08-19T05:07:39.152Z,25.11
2022-08-19T05:10:07.550Z,25.01
2022-08-19T05:12:35.044Z,25.35
2022-08-19T05:15:04.197Z,25.50
2022-08-19T05:17:37.545Z,25.56
2022-08-19T05:20:26.279Z,25.43
2022-08-19T05:22:53.874Z,25.50
2022-08-19T05:25:22.214Z,25.77
2022-08-19T05:27:52.961Z,25.78
2022-08-19T05:30:24.410Z,25.77
2022-08-19T05:33:11.117Z,25.94
2022-08-19T05:35:40.178Z,26.26
2022-08-19T05:38:11.966Z,26.86
2022-08-19T05:40:39.949Z,27.18
2022-08-19T05:43:09.047Z,27.93
2022-08-19T05:45:41.450Z,27.95
2022-08-19T05:48:12.150Z,28.67
2022-08-19T05:50:41.213Z,27.86
2022-08-19T05:53:09.940Z,28.21
2022-08-19T05:55:39.434Z,28.64
2022-08-19T05:58:08.564Z,29.36
2022-08-19T06:00:37.895Z,30.02
2022-08-19T06:03:11.884Z,30.31
2022-08-19T06:05:50.386Z,30.70
2022-08-19T06:08:19.636Z,31.01
2022-08-19T06:10:46.940Z,30.88
2022-08-19T06:13:39.616Z,31.10
2022-08-19T06:16:06.912Z,31.15
2022-08-19T06:18:34.435Z,31.49
2022-08-19T06:21:04.943Z,32.27
2022-08-19T06:23:32.049Z,32.14
2022-08-19T06:25:59.226Z,32.44
2022-08-19T06:28:26.371Z,32.71
2022-08-19T06:30:53.568Z,32.57
2022-08-19T06:33:20.652Z,32.32
2022-08-19T06:35:47.968Z,32.31
2022-08-19T06:38:18.338Z,33.49
2022-08-19T06:40:45.494Z,34.01
2022-08-19T06:43:12.601Z,34.19
2022-08-19T06:45:41.365Z,34.49
2022-08-19T06:48:08.499Z,34.84
2022-08-19T06:50:36.728Z,35.45
2022-08-19T06:53:06.931Z,34.63
2022-08-19T06:55:34.042Z,35.11
2022-08-19T06:58:05.190Z,35.48
2022-08-19T07:00:32.976Z,36.03
2022-08-19T07:03:25.960Z,35.99
2022-08-19T07:05:53.797Z,35.37
2022-08-19T07:08:20.971Z,36.35
2022-08-19T07:10:50.091Z,36.70
2022-08-19T07:13:17.248Z,36.61
2022-08-19T07:15:45.892Z,36.52
2022-08-19T07:18:13.327Z,36.91
2022-08-19T07:20:42.058Z,36.72
2022-08-19T07:23:10.022Z,36.71
2022-08-19T07:25:43.569Z,36.10
2022-08-19T07:28:24.478Z,36.52
2022-08-19T07:30:53.516Z,35.82
2022-08-19T07:33:20.863Z,36.78
2022-08-19T07:35:48.497Z,37.26
2022-08-19T07:38:17.107Z,37.25
2022-08-19T07:40:47.132Z,36.75
2022-08-19T07:43:17.771Z,37.20
2022-08-19T07:45:45.979Z,37.31
2022-08-19T07:48:13.508Z,37.71
2022-08-19T07:50:41.229Z,36.74
2022-08-19T07:56:04.601Z,37.53
2022-08-19T07:58:34.190Z,38.02
2022-08-19T08:01:01.548Z,38.36
2022-08-19T08:03:49.014Z,38.97
2022-08-19T08:06:35.749Z,39.52
2022-08-19T08:09:16.865Z,40.21
2022-08-19T08:12:32.517Z,40.03
2022-08-19T08:14:56.752Z,40.23
2022-08-19T08:17:31.118Z,40.10
2022-08-19T08:20:15.077Z,40.64
2022-08-19T08:23:05.818Z,40.78
2022-08-19T08:25:34.443Z,41.03
2022-08-19T08:28:03.789Z,41.15
2022-08-19T08:30:33.883Z,41.33
2022-08-19T08:33:02.675Z,41.98
2022-08-19T08:35:30.044Z,42.39
2022-08-19T08:37:57.686Z,43.01
2022-08-19T08:40:41.096Z,43.11
2022-08-19T08:43:14.915Z,42.67
2022-08-19T08:46:12.239Z,42.25
2022-08-19T08:48:47.456Z,42.71
2022-08-19T08:54:21.572Z,42.70
2022-08-19T08:56:51.545Z,43.04
2022-08-19T08:59:35.647Z,42.40
2022-08-19T09:02:06.003Z,43.11
2022-08-19T09:04:36.010Z,43.29
2022-08-19T09:07:34.785Z,43.45
2022-08-19T09:10:35.776Z,43.76
2022-08-19T09:13:31.797Z,43.55
2022-08-19T09:16:13.229Z,42.42
2022-08-19T09:18:54.588Z,43.48
2022-08-19T09:21:33.438Z,43.72
2022-08-19T09:24:03.535Z,42.62
2022-08-19T09:26:47.152Z,42.35
2022-08-19T09:29:16.403Z,41.47
2022-08-19T09:34:37.880Z,40.74
2022-08-19T09:39:58.035Z,40.55
2022-08-19T09:42:30.595Z,40.30
2022-08-19T09:45:05.165Z,40.13
2022-08-19T09:47:40.598Z,40.16
2022-08-19T09:50:11.924Z,39.86
2022-08-19T09:52:55.116Z,39.35
2022-08-19T09:55:31.323Z,39.52
2022-08-19T09:58:02.737Z,39.70
2022-08-19T10:00:31.251Z,38.93
2022-08-19T10:02:58.703Z,39.24
2022-08-19T10:05:44.695Z,39.35
2022-08-19T10:08:22.696Z,39.25
2022-08-19T10:10:54.434Z,38.90
2022-08-19T10:13:24.624Z,39.08
2022-08-19T10:15:53.212Z,39.11
2022-08-19T10:18:22.209Z,39.15
2022-08-19T10:20:52.705Z,39.27
2022-08-19T10:23:22.258Z,39.35
2022-08-19T10:25:50.633Z,39.35
2022-08-19T10:28:19.321Z,39.21
2022-08-19T10:30:47.690Z,39.06
2022-08-19T10:33:16.149Z,39.18
2022-08-19T10:36:08.297Z,39.24
2022-08-19T10:38:35.580Z,39.13
2022-08-19T10:41:30.302Z,38.89
2022-08-19T10:44:04.129Z,38.97
2022-08-19T10:46:34.035Z,38.93
2022-08-19T10:49:02.687Z,38.77
2022-08-19T10:51:48.953Z,38.63
2022-08-19T10:54:17.553Z,38.56
2022-08-19T10:56:58.506Z,38.43
2022-08-19T10:59:33.806Z,38.58
2022-08-19T11:02:06.074Z,38.49
2022-08-19T11:04:34.213Z,38.55
2022-08-19T11:07:06.613Z,38.36
2022-08-19T11:09:39.987Z,38.52
2022-08-19T11:12:08.571Z,38.29
2022-08-19T11:14:35.737Z,38.36
2022-08-19T11:17:04.868Z,38.42
2022-08-19T11:19:32.128Z,38.55
2022-08-19T11:22:02.326Z,38.45
2022-08-19T11:24:32.019Z,38.32
2022-08-19T11:27:07.045Z,38.29
2022-08-19T11:29:35.364Z,38.29
2022-08-19T11:32:07.860Z,38.29
2022-08-19T11:34:36.384Z,38.42
2022-08-19T11:37:04.643Z,38.53
2022-08-19T11:39:32.957Z,38.63
2022-08-19T11:42:00.809Z,38.76
2022-08-19T11:44:31.343Z,38.62
2022-08-19T11:46:58.701Z,38.32
2022-08-19T11:49:37.146Z,38.26
2022-08-19T11:52:04.339Z,38.15
2022-08-19T11:54:31.949Z,38.14
2022-08-19T11:56:59.056Z,37.94
2022-08-19T11:59:27.838Z,38.06
2022-08-19T12:01:56.688Z,38.01
2022-08-19T12:04:24.231Z,38.02
2022-08-19T12:06:51.543Z,38.00
2022-08-19T12:09:18.763Z,37.87
2022-08-19T12:11:46.805Z,38.00
2022-08-19T12:14:15.206Z,37.67
2022-08-19T12:16:50.431Z,37.30
2022-08-19T12:19:22.105Z,36.76
2022-08-19T12:21:51.174Z,36.58
2022-08-19T12:24:24.152Z,36.27
2022-08-19T12:26:53.468Z,36.23
2022-08-19T12:29:23.825Z,35.93
2022-08-19T12:31:52.363Z,35.68
2022-08-19T12:34:21.057Z,35.59
2022-08-19T12:36:50.383Z,35.38
2022-08-19T12:39:17.845Z,35.30
2022-08-19T12:41:51.388Z,35.45
2022-08-19T12:44:31.889Z,35.17
2022-08-19T12:47:00.918Z,35.14
2022-08-19T12:49:53.238Z,35.18
2022-08-19T12:52:26.802Z,35.28
2022-08-19T12:54:56.680Z,35.12
2022-08-19T12:57:31.859Z,35.04
2022-08-19T13:00:13.567Z,34.98
2022-08-19T13:02:42.803Z,34.86
2022-08-19T13:05:12.995Z,34.84
2022-08-19T13:07:41.570Z,34.80
2022-08-19T13:10:12.102Z,34.74
2022-08-19T13:12:40.217Z,34.31
2022-08-19T13:15:10.702Z,33.85
2022-08-19T13:17:40.180Z,33.64
2022-08-19T13:20:09.407Z,32.90
2022-08-19T13:22:37.557Z,32.86
2022-08-19T13:25:07.001Z,32.68
2022-08-19T13:27:34.303Z,32.54
2022-08-19T13:30:20.780Z,32.62
2022-08-19T13:33:06.397Z,32.34
2022-08-19T13:35:33.584Z,32.38
2022-08-19T13:38:01.792Z,32.37
2022-08-19T13:40:30.145Z,32.37
2022-08-19T13:42:57.263Z,32.52
2022-08-19T13:45:27.520Z,32.49
2022-08-19T13:47:59.513Z,32.74
2022-08-19T13:50:32.182Z,32.61
2022-08-19T13:52:59.393Z,32.92
2022-08-19T13:55:27.948Z,32.94
2022-08-19T13:57:57.999Z,33.06
2022-08-19T14:00:27.461Z,33.17
2022-08-19T14:02:56.978Z,33.09
2022-08-19T14:05:25.702Z,33.39
2022-08-19T14:07:53.503Z,33.20
2022-08-19T14:10:22.482Z,33.44
2022-08-19T14:12:50.390Z,33.02
2022-08-19T14:15:17.591Z,33.26
2022-08-19T14:17:47.624Z,33.31
2022-08-19T14:20:17.752Z,33.12
2022-08-19T14:22:47.215Z,33.20
2022-08-19T14:25:21.433Z,32.85
2022-08-19T14:27:49.812Z,32.61
2022-08-19T14:30:20.965Z,32.69
2022-08-19T14:32:48.561Z,32.58
2022-08-19T14:35:17.044Z,32.54
2022-08-19T14:37:46.126Z,32.47
2022-08-19T14:40:17.515Z,32.41
2022-08-19T14:42:45.255Z,32.21
2022-08-19T14:45:12.919Z,32.17
2022-08-19T14:47:40.868Z,31.73
2022-08-19T14:50:18.198Z,31.67
2022-08-19T14:52:48.553Z,31.66
2022-08-19T14:55:17.190Z,31.79
2022-08-19T14:57:45.475Z,31.73
2022-08-19T15:00:16.466Z,31.76
2022-08-19T15:02:47.187Z,31.62
2022-08-19T15:05:14.310Z,31.55
2022-08-19T15:07:41.969Z,31.45
2022-08-19T15:10:10.607Z,31.38
2022-08-19T15:12:41.108Z,31.39
2022-08-19T15:15:13.776Z,31.41
2022-08-19T15:17:47.345Z,31.45
2022-08-19T15:20:17.690Z,31.45
2022-08-19T15:22:45.055Z,31.41
2022-08-19T15:25:14.931Z,31.32
2022-08-19T15:27:42.280Z,31.35
2022-08-19T15:30:11.271Z,31.28
2022-08-19T15:32:39.638Z,31.24
2022-08-19T15:35:07.862Z,31.24
2022-08-19T15:37:37.248Z,31.08
2022-08-19T15:40:08.980Z,31.07
2022-08-19T15:42:37.965Z,31.11
2022-08-19T15:45:06.721Z,30.90
2022-08-19T15:47:34.612Z,31.11
2022-08-19T15:50:10.930Z,31.07
2022-08-19T15:52:50.477Z,31.02
2022-08-19T15:55:33.426Z,30.98
2022-08-19T15:58:28.704Z,30.99
2022-08-19T16:01:24.643Z,31.04
2022-08-19T16:04:15.829Z,30.87
2022-08-19T16:06:53.176Z,30.66
2022-08-19T16:09:27.615Z,30.61
2022-08-19T16:12:05.957Z,30.53
2022-08-19T16:14:35.437Z,30.61
2022-08-19T16:17:03.138Z,30.60
2022-08-19T16:19:32.444Z,30.56
2022-08-19T16:21:59.603Z,30.66
2022-08-19T16:24:28.498Z,30.76
2022-08-19T16:26:56.636Z,30.77
2022-08-19T16:29:34.194Z,30.57
2022-08-19T16:32:10.617Z,30.36
2022-08-19T16:34:40.135Z,30.06
2022-08-19T16:37:08.012Z,29.92
2022-08-19T16:39:35.281Z,29.67
2022-08-19T16:42:03.345Z,28.03
2022-08-19T16:44:31.835Z,27.52
2022-08-19T16:47:00.025Z,28.00
2022-08-19T16:49:53.847Z,28.03
2022-08-19T16:52:17.199Z,27.31
2022-08-19T16:54:44.813Z,27.23
2022-08-19T16:57:12.905Z,27.06
2022-08-19T16:59:42.490Z,27.10
2022-08-19T17:02:20.129Z,27.00
2022-08-19T17:04:57.623Z,26.80
2022-08-19T17:07:28.046Z,27.00
2022-08-19T17:09:56.496Z,27.07
2022-08-19T17:12:30.213Z,27.06
2022-08-19T17:14:58.479Z,27.14
2022-08-19T17:17:28.937Z,27.15
2022-08-19T17:19:58.654Z,27.15
2022-08-19T17:22:26.018Z,27.15
2022-08-19T17:24:56.198Z,27.03
2022-08-19T17:27:32.442Z,27.18
2022-08-19T17:30:02.608Z,27.23
2022-08-19T17:32:33.250Z,27.21
2022-08-19T17:35:00.687Z,27.33
2022-08-19T17:37:28.239Z,27.30
2022-08-19T17:42:47.403Z,27.07
2022-08-19T17:45:14.933Z,27.03
2022-08-19T17:47:42.066Z,27.24
2022-08-19T17:50:10.702Z,27.27
2022-08-19T17:52:38.028Z,27.38
2022-08-19T17:55:07.265Z,27.37
2022-08-19T17:57:34.465Z,27.26
2022-08-19T18:00:05.502Z,27.51
2022-08-19T18:02:48.703Z,27.73
2022-08-19T18:05:20.308Z,27.86
2022-08-19T18:07:52.174Z,27.78
2022-08-19T18:10:23.811Z,27.78
2022-08-19T18:13:02.143Z,27.69
2022-08-19T18:15:44.821Z,27.31
2022-08-19T18:18:14.978Z,27.23
2022-08-19T18:20:43.591Z,27.17
2022-08-19T18:23:41.327Z,27.12
2022-08-19T18:26:02.383Z,27.10
2022-08-19T18:28:30.339Z,27.23
2022-08-19T18:30:57.534Z,27.30
2022-08-19T18:33:25.608Z,27.31
2022-08-19T18:35:53.218Z,27.27
2022-08-19T18:38:40.657Z,27.17
2022-08-19T18:41:27.383Z,27.10
2022-08-19T18:44:13.008Z,26.57
2022-08-19T18:46:59.395Z,26.46
2022-08-19T18:49:29.248Z,26.17
2022-08-19T18:51:56.850Z,26.04
2022-08-19T18:54:25.515Z,26.13
2022-08-19T18:56:55.728Z,26.09
2022-08-19T18:59:28.046Z,26.20
2022-08-19T19:01:58.214Z,26.20
2022-08-19T19:04:31.469Z,26.11
2022-08-19T19:07:03.375Z,26.02
2022-08-19T19:09:30.637Z,26.04
2022-08-19T19:12:00.388Z,26.01
2022-08-19T19:14:50.458Z,25.54
2022-08-19T19:17:18.582Z,25.47
2022-08-19T19:19:45.837Z,25.20
2022-08-19T19:22:17.179Z,24.90
2022-08-19T19:24:44.540Z,25.09
2022-08-19T19:27:13.620Z,25.09
2022-08-19T19:29:42.076Z,24.94
2022-08-19T19:32:16.614Z,24.95
2022-08-19T19:34:44.051Z,24.87
2022-08-19T19:37:11.951Z,24.95
2022-08-19T19:39:46.019Z,24.91
2022-08-19T19:42:19.756Z,24.52
2022-08-19T19:44:50.275Z,24.44
2022-08-19T19:47:19.245Z,24.09
2022-08-19T19:50:13.849Z,24.08
2022-08-19T19:52:39.820Z,24.12
2022-08-19T19:55:09.243Z,23.90
2022-08-19T19:57:39.711Z,23.88
2022-08-19T20:00:09.915Z,23.82
2022-08-19T20:02:37.956Z,23.69
2022-08-19T20:05:06.553Z,23.64
2022-08-19T20:07:52.063Z,23.71
2022-08-19T20:10:19.937Z,23.44
2022-08-19T20:12:49.183Z,23.31
2022-08-19T20:15:16.323Z,23.13
2022-08-19T20:17:44.298Z,23.17
2022-08-19T20:20:16.810Z,23.27
2022-08-19T20:22:45.903Z,23.36
2022-08-19T20:25:16.855Z,23.38
2022-08-19T20:27:44.303Z,23.26
2022-08-19T20:30:19.213Z,23.23
2022-08-19T20:32:48.104Z,23.28
2022-08-19T20:35:18.722Z,23.28
2022-08-19T20:37:46.633Z,23.43
2022-08-19T20:40:16.493Z,23.37
2022-08-19T20:42:50.715Z,23.57
2022-08-19T20:45:32.784Z,23.44
2022-08-19T20:48:03.358Z,23.48
2022-08-19T20:50:34.946Z,23.65
2022-08-19T20:53:09.819Z,23.46
2022-08-19T20:58:28.838Z,23.41
2022-08-19T21:00:59.595Z,23.44
2022-08-19T21:03:32.079Z,23.48
2022-08-19T21:05:59.531Z,23.41
2022-08-19T21:08:27.679Z,23.43
2022-08-19T21:10:57.293Z,23.53
2022-08-19T21:13:25.459Z,23.43
2022-08-19T21:15:53.744Z,23.46
2022-08-19T21:18:22.749Z,23.58
2022-08-19T21:20:50.723Z,23.55
2022-08-19T21:23:22.715Z,23.47
2022-08-19T21:25:54.454Z,23.54
2022-08-19T21:28:35.715Z,23.43
2022-08-19T21:31:06.501Z,23.33
2022-08-19T21:33:33.942Z,23.48
2022-08-19T21:36:05.596Z,23.34
2022-08-19T21:38:32.853Z,23.21
2022-08-19T21:41:04.253Z,23.20
2022-08-19T21:43:37.546Z,23.24
2022-08-19T21:46:06.595Z,23.17
2022-08-19T21:48:33.776Z,23.17
2022-08-19T21:51:01.127Z,23.02
2022-08-19T21:53:31.499Z,23.00
2022-08-19T21:56:06.778Z,23.03
2022-08-19T21:58:36.403Z,23.04
2022-08-19T22:01:06.379Z,23.21
2022-08-19T22:03:38.469Z,23.27
2022-08-19T22:06:06.528Z,23.46
2022-08-19T22:08:33.696Z,23.37
2022-08-19T22:11:02.575Z,23.38
2022-08-19T22:13:35.923Z,23.38
2022-08-19T22:16:06.592Z,23.54
2022-08-19T22:18:35.504Z,23.33
2022-08-19T22:21:07.250Z,23.41
2022-08-19T22:23:36.862Z,23.41
2022-08-19T22:26:04.026Z,23.31
2022-08-19T22:28:31.159Z,23.37
2022-08-19T22:30:58.462Z,23.37
2022-08-19T22:33:27.785Z,23.67
2022-08-19T22:35:55.215Z,23.85
2022-08-19T22:38:23.131Z,23.92
2022-08-19T22:40:52.499Z,23.85
2022-08-19T22:43:23.059Z,23.72
2022-08-19T22:45:52.188Z,23.64
2022-08-19T22:48:21.632Z,23.77
2022-08-19T22:51:08.684Z,23.57
2022-08-19T22:53:39.718Z,23.57
2022-08-19T22:56:14.486Z,23.44
2022-08-19T22:58:43.676Z,22.89
2022-08-19T23:01:27.352Z,23.10
2022-08-19T23:03:59.308Z,22.63
2022-08-19T23:06:33.503Z,22.58
2022-08-19T23:09:07.421Z,22.52
2022-08-19T23:11:41.940Z,22.72
2022-08-19T23:14:11.173Z,22.59
2022-08-19T23:16:38.676Z,22.41
2022-08-19T23:19:07.358Z,22.25
2022-08-19T23:21:36.298Z,22.22
2022-08-19T23:24:04.051Z,22.27
2022-08-19T23:26:35.546Z,22.21
2022-08-19T23:29:24.012Z,22.03
2022-08-19T23:31:51.505Z,22.11
2022-08-19T23:34:18.728Z,22.10
2022-08-19T23:36:46.354Z,22.17
2022-08-19T23:39:13.491Z,22.14
2022-08-19T23:41:40.681Z,22.06
2022-08-19T23:44:14.421Z,22.11
2022-08-19T23:46:55.203Z,22.04
2022-08-19T23:49:24.586Z,22.07
2022-08-19T23:51:52.657Z,22.20
2022-08-19T23:54:19.911Z,22.01
2022-08-19T23:56:47.040Z,21.92
2022-08-19T23:59:14.189Z,21.82
